createdAt,value
2022-12-23T00:00:32.478Z,812.97
2022-12-23T00:01:32.516Z,812.95
2022-12-23T00:02:32.615Z,813.04
2022-12-23T00:03:32.720Z,813.08
2022-12-23T00:04:32.512Z,813.08
2022-12-23T00:05:37.453Z,813.11
2022-12-23T00:06:32.518Z,813.09
2022-12-23T00:07:32.529Z,813.10
2022-12-23T00:08:32.528Z,813.03
2022-12-23T00:09:32.543Z,812.98
2022-12-23T00:10:32.543Z,812.94
2022-12-23T00:11:32.557Z,812.81
2022-12-23T00:12:32.581Z,812.75
2022-12-23T00:13:32.568Z,812.81
2022-12-23T00:14:32.570Z,812.83
2022-12-23T00:15:32.580Z,812.91
2022-12-23T00:16:32.627Z,812.93
2022-12-23T00:17:32.608Z,812.89
2022-12-23T00:18:32.594Z,812.83
2022-12-23T00:19:32.611Z,812.75
2022-12-23T00:20:32.623Z,812.83
2022-12-23T00:21:32.632Z,812.88
2022-12-23T00:22:32.624Z,812.85
2022-12-23T00:23:32.641Z,812.83
2022-12-23T00:24:32.638Z,812.87
2022-12-23T00:25:32.648Z,812.87
2022-12-23T00:26:32.649Z,812.82
2022-12-23T00:27:37.371Z,812.79
2022-12-23T00:28:32.688Z,812.81
2022-12-23T00:29:32.677Z,812.92
2022-12-23T00:30:32.676Z,812.91
2022-12-23T00:31:32.747Z,812.90
2022-12-23T00:32:32.694Z,812.89
2022-12-23T00:33:32.706Z,812.83
2022-12-23T00:34:32.708Z,812.79
2022-12-23T00:35:32.715Z,812.84
2022-12-23T00:36:32.827Z,812.78
2022-12-23T00:37:32.727Z,812.88
2022-12-23T00:38:32.730Z,812.92
2022-12-23T00:39:32.758Z,812.82
2022-12-23T00:40:32.807Z,812.83
2022-12-23T00:41:32.759Z,812.83
2022-12-23T00:42:32.762Z,812.86
2022-12-23T00:43:32.767Z,812.83
2022-12-23T00:44:32.831Z,812.82
2022-12-23T00:45:32.842Z,812.86
2022-12-23T00:46:32.852Z,812.79
2022-12-23T00:47:32.812Z,812.75
2022-12-23T00:48:32.803Z,812.77
2022-12-23T00:49:32.809Z,812.79
2022-12-23T00:50:32.820Z,812.80
2022-12-23T00:51:32.835Z,812.81
2022-12-23T00:52:32.828Z,812.80
2022-12-23T00:53:32.837Z,812.81
2022-12-23T00:54:32.841Z,812.92
2022-12-23T00:55:32.859Z,812.96
2022-12-23T00:56:32.855Z,812.89
2022-12-23T00:57:32.883Z,812.89
2022-12-23T00:58:32.871Z,812.88
2022-12-23T00:59:32.882Z,812.81
2022-12-23T01:00:32.899Z,812.83
2022-12-23T01:01:33.006Z,812.84
2022-12-23T01:02:33.028Z,812.83
2022-12-23T01:03:33.000Z,812.83
2022-12-23T01:04:32.920Z,812.82
2022-12-23T01:05:32.924Z,812.83
2022-12-23T01:06:32.927Z,812.82
2022-12-23T01:07:32.935Z,812.88
2022-12-23T01:08:32.945Z,812.87
2022-12-23T01:09:32.953Z,812.82
2022-12-23T01:10:32.962Z,812.75
2022-12-23T01:11:32.961Z,812.79
2022-12-23T01:12:32.973Z,812.82
2022-12-23T01:13:32.999Z,812.62
2022-12-23T01:14:32.988Z,812.67
2022-12-23T01:15:32.993Z,812.63
2022-12-23T01:16:33.069Z,812.66
2022-12-23T01:17:33.005Z,812.89
2022-12-23T01:18:33.017Z,812.79
2022-12-23T01:19:33.015Z,812.68
2022-12-23T01:20:33.036Z,812.72
2022-12-23T01:21:33.050Z,812.77
2022-12-23T01:22:33.047Z,812.73
2022-12-23T01:23:33.043Z,812.68
2022-12-23T01:24:33.098Z,812.72
2022-12-23T01:25:33.059Z,812.76
2022-12-23T01:26:33.075Z,812.83
2022-12-23T01:27:33.072Z,812.90
2022-12-23T01:28:33.083Z,812.86
2022-12-23T01:29:33.086Z,812.88
2022-12-23T01:30:33.120Z,812.88
2022-12-23T01:31:33.176Z,812.83
2022-12-23T01:32:33.135Z,812.83
2022-12-23T01:33:33.140Z,812.78
2022-12-23T01:34:37.181Z,812.73
2022-12-23T01:35:33.150Z,812.64
2022-12-23T01:36:33.139Z,812.56
2022-12-23T01:37:33.145Z,812.57
2022-12-23T01:38:33.163Z,812.57
2022-12-23T01:39:33.171Z,812.67
2022-12-23T01:40:33.172Z,812.70
2022-12-23T01:41:33.174Z,812.69
2022-12-23T01:42:33.184Z,812.66
2022-12-23T01:43:33.186Z,812.84
2022-12-23T01:44:33.198Z,812.77
2022-12-23T01:45:33.241Z,812.71
2022-12-23T01:46:33.257Z,812.70
2022-12-23T01:47:33.216Z,812.59
2022-12-23T01:48:33.297Z,812.58
2022-12-23T01:49:33.228Z,812.58
2022-12-23T01:50:33.260Z,812.49
2022-12-23T01:51:33.248Z,812.58
2022-12-23T01:52:33.254Z,812.56
2022-12-23T01:53:33.260Z,812.53
2022-12-23T01:54:33.274Z,812.54
2022-12-23T01:55:33.278Z,812.60
2022-12-23T01:56:33.286Z,812.62
2022-12-23T01:57:33.290Z,812.68
2022-12-23T01:58:33.320Z,812.75
2022-12-23T01:59:33.303Z,812.83
2022-12-23T02:00:33.313Z,812.89
2022-12-23T02:01:33.427Z,812.97
2022-12-23T02:02:33.551Z,812.96
2022-12-23T02:03:33.415Z,812.91
2022-12-23T02:04:33.367Z,812.94
2022-12-23T02:05:33.344Z,812.83
2022-12-23T02:06:33.356Z,812.81
2022-12-23T02:07:33.359Z,812.80
2022-12-23T02:08:33.371Z,812.73
2022-12-23T02:09:33.374Z,812.69
2022-12-23T02:10:33.397Z,812.67
2022-12-23T02:11:33.390Z,812.63
2022-12-23T02:12:33.469Z,812.68
2022-12-23T02:13:33.406Z,812.63
2022-12-23T02:14:33.417Z,812.55
2022-12-23T02:15:33.419Z,812.65
2022-12-23T02:16:33.450Z,812.68
2022-12-23T02:17:33.429Z,812.70
2022-12-23T02:18:33.452Z,812.72
2022-12-23T02:19:33.445Z,812.72
2022-12-23T02:20:33.474Z,812.72
2022-12-23T02:21:33.473Z,812.69
2022-12-23T02:22:33.466Z,812.61
2022-12-23T02:23:33.477Z,812.66
2022-12-23T02:24:33.478Z,812.65
2022-12-23T02:25:33.488Z,812.62
2022-12-23T02:26:33.502Z,812.66
2022-12-23T02:27:33.515Z,812.68
2022-12-23T02:28:33.513Z,812.72
2022-12-23T02:29:33.514Z,812.67
2022-12-23T02:30:33.577Z,812.67
2022-12-23T02:31:33.527Z,812.70
2022-12-23T02:32:33.539Z,812.69
2022-12-23T02:33:33.558Z,812.67
2022-12-23T02:34:33.555Z,812.72
2022-12-23T02:35:33.557Z,812.70
2022-12-23T02:36:33.583Z,812.71
2022-12-23T02:37:33.570Z,812.76
2022-12-23T02:38:33.581Z,812.83
2022-12-23T02:39:33.591Z,812.87
2022-12-23T02:40:33.608Z,812.86
2022-12-23T02:41:33.604Z,812.89
2022-12-23T02:42:33.612Z,812.91
2022-12-23T02:43:33.609Z,812.90
2022-12-23T02:44:33.624Z,812.90
2022-12-23T02:45:33.627Z,812.96
2022-12-23T02:46:33.719Z,812.97
2022-12-23T02:47:33.692Z,812.95
2022-12-23T02:48:33.661Z,812.90
2022-12-23T02:49:33.665Z,813.00
2022-12-23T02:50:33.668Z,812.93
2022-12-23T02:51:33.673Z,812.94
2022-12-23T02:52:33.767Z,812.79
2022-12-23T02:53:33.685Z,812.85
2022-12-23T02:54:33.694Z,812.88
2022-12-23T02:55:33.697Z,812.77
2022-12-23T02:56:33.706Z,812.77
2022-12-23T02:57:33.712Z,812.80
2022-12-23T02:58:33.725Z,812.80
2022-12-23T02:59:33.723Z,812.90
2022-12-23T03:00:33.742Z,812.87
2022-12-23T03:01:33.886Z,812.85
2022-12-23T03:02:33.996Z,812.73
2022-12-23T03:03:33.812Z,812.69
2022-12-23T03:04:33.815Z,812.64
2022-12-23T03:05:33.766Z,812.67
2022-12-23T03:06:33.782Z,812.69
2022-12-23T03:07:33.821Z,812.73
2022-12-23T03:08:33.809Z,812.72
2022-12-23T03:09:33.795Z,812.72
2022-12-23T03:10:33.808Z,812.79
2022-12-23T03:11:33.818Z,812.83
2022-12-23T03:12:33.813Z,812.90
2022-12-23T03:13:33.843Z,812.81
2022-12-23T03:14:33.837Z,812.85
2022-12-23T03:15:33.952Z,812.92
2022-12-23T03:16:33.845Z,813.04
2022-12-23T03:17:33.846Z,812.94
2022-12-23T03:18:33.858Z,812.97
2022-12-23T03:19:33.863Z,813.03
2022-12-23T03:20:33.874Z,813.02
2022-12-23T03:21:33.877Z,812.95
2022-12-23T03:22:33.886Z,812.94
2022-12-23T03:23:33.892Z,812.89
2022-12-23T03:24:33.970Z,812.83
2022-12-23T03:25:33.902Z,812.79
2022-12-23T03:26:33.911Z,812.97
2022-12-23T03:27:33.916Z,812.88
2022-12-23T03:28:33.930Z,812.78
2022-12-23T03:29:33.940Z,812.77
2022-12-23T03:30:33.954Z,812.76
2022-12-23T03:31:33.997Z,812.74
2022-12-23T03:32:33.963Z,812.71
2022-12-23T03:33:33.963Z,812.65
2022-12-23T03:34:33.982Z,812.60
2022-12-23T03:35:33.969Z,812.67
2022-12-23T03:36:34.000Z,812.69
2022-12-23T03:37:33.993Z,812.70
2022-12-23T03:38:33.995Z,812.70
2022-12-23T03:39:34.000Z,812.79
2022-12-23T03:40:34.041Z,812.79
2022-12-23T03:41:34.013Z,812.78
2022-12-23T03:42:34.027Z,812.92
2022-12-23T03:43:34.027Z,812.85
2022-12-23T03:44:34.038Z,812.85
2022-12-23T03:45:39.432Z,812.88
2022-12-23T03:46:34.134Z,812.89
2022-12-23T03:47:34.058Z,812.91
2022-12-23T03:48:34.066Z,812.87
2022-12-23T03:49:34.069Z,812.91
2022-12-23T03:50:34.093Z,812.88
2022-12-23T03:51:34.086Z,812.90
2022-12-23T03:52:34.102Z,812.95
2022-12-23T03:53:34.099Z,812.90
2022-12-23T03:54:34.108Z,812.94
2022-12-23T03:55:34.110Z,812.96
2022-12-23T03:56:34.151Z,812.96
2022-12-23T03:57:34.125Z,812.97
2022-12-23T03:58:34.137Z,812.97
2022-12-23T03:59:34.145Z,812.94
2022-12-23T04:00:34.153Z,812.97
2022-12-23T04:01:34.349Z,812.96
2022-12-23T04:02:34.316Z,812.95
2022-12-23T04:03:34.234Z,812.90
2022-12-23T04:04:34.181Z,812.87
2022-12-23T04:05:34.185Z,812.88
2022-12-23T04:06:34.193Z,812.82
2022-12-23T04:07:34.196Z,812.84
2022-12-23T04:08:34.205Z,812.85
2022-12-23T04:09:34.212Z,812.86
2022-12-23T04:10:34.221Z,812.89
2022-12-23T04:11:34.239Z,812.85
2022-12-23T04:12:34.257Z,812.81
2022-12-23T04:13:34.246Z,812.73
2022-12-23T04:14:34.253Z,812.77
2022-12-23T04:15:34.262Z,812.71
2022-12-23T04:16:34.358Z,812.62
2022-12-23T04:17:34.269Z,812.68
2022-12-23T04:18:34.309Z,812.68
2022-12-23T04:19:34.282Z,812.67
2022-12-23T04:20:34.293Z,812.65
2022-12-23T04:21:34.296Z,812.64
2022-12-23T04:22:34.322Z,812.66
2022-12-23T04:23:34.309Z,812.65
2022-12-23T04:24:34.330Z,812.81
2022-12-23T04:25:34.324Z,812.71
2022-12-23T04:26:34.334Z,812.67
2022-12-23T04:27:34.341Z,812.64
2022-12-23T04:28:34.434Z,812.60
2022-12-23T04:29:34.353Z,812.61
2022-12-23T04:30:34.978Z,812.70
2022-12-23T04:31:34.445Z,812.70
2022-12-23T04:32:34.381Z,812.57
2022-12-23T04:33:34.380Z,812.54
2022-12-23T04:34:34.400Z,812.62
2022-12-23T04:35:34.392Z,812.66
2022-12-23T04:36:34.411Z,812.73
2022-12-23T04:37:34.410Z,812.72
2022-12-23T04:38:34.427Z,812.70
2022-12-23T04:39:34.432Z,812.67
2022-12-23T04:40:34.434Z,812.68
2022-12-23T04:41:34.443Z,812.71
2022-12-23T04:42:34.448Z,812.69
2022-12-23T04:43:34.452Z,812.60
2022-12-23T04:44:34.487Z,812.68
2022-12-23T04:45:34.470Z,812.68
2022-12-23T04:46:34.603Z,812.67
2022-12-23T04:47:34.490Z,812.71
2022-12-23T04:48:34.491Z,812.67
2022-12-23T04:49:34.496Z,812.69
2022-12-23T04:50:34.507Z,812.69
2022-12-23T04:51:34.517Z,812.74
2022-12-23T04:52:34.532Z,812.68
2022-12-23T04:53:34.523Z,812.69
2022-12-23T04:54:34.536Z,812.71
2022-12-23T04:55:34.534Z,812.73
2022-12-23T04:56:34.547Z,812.76
2022-12-23T04:57:34.568Z,812.70
2022-12-23T04:58:34.579Z,812.72
2022-12-23T04:59:34.568Z,812.70
2022-12-23T05:00:39.548Z,812.69
2022-12-23T05:01:34.724Z,812.65
2022-12-23T05:02:34.724Z,812.63
2022-12-23T05:03:34.675Z,812.57
2022-12-23T05:04:34.725Z,812.57
2022-12-23T05:05:34.636Z,812.54
2022-12-23T05:06:34.622Z,812.57
2022-12-23T05:07:34.629Z,812.57
2022-12-23T05:08:34.637Z,812.49
2022-12-23T05:09:34.640Z,812.47
2022-12-23T05:10:34.653Z,812.51
2022-12-23T05:11:40.161Z,812.59
2022-12-23T05:12:34.669Z,812.55
2022-12-23T05:13:34.689Z,812.54
2022-12-23T05:14:34.705Z,812.55
2022-12-23T05:15:34.688Z,812.58
2022-12-23T05:16:34.813Z,812.55
2022-12-23T05:17:34.712Z,812.47
2022-12-23T05:18:34.713Z,812.43
2022-12-23T05:19:34.713Z,812.46
2022-12-23T05:20:34.731Z,812.54
2022-12-23T05:21:34.733Z,812.59
2022-12-23T05:22:34.757Z,812.63
2022-12-23T05:23:34.769Z,812.68
2022-12-23T05:24:34.755Z,812.64
2022-12-23T05:25:34.763Z,812.61
2022-12-23T05:26:34.794Z,812.63
2022-12-23T05:27:34.775Z,812.68
2022-12-23T05:28:34.890Z,812.67
2022-12-23T05:29:34.793Z,812.71
2022-12-23T05:30:34.801Z,812.68
2022-12-23T05:31:34.862Z,812.62
2022-12-23T05:32:34.832Z,812.70
2022-12-23T05:33:34.898Z,812.73
2022-12-23T05:34:34.833Z,812.74
2022-12-23T05:35:34.851Z,812.78
2022-12-23T05:36:34.841Z,812.78
2022-12-23T05:37:34.851Z,812.76
2022-12-23T05:38:34.856Z,812.76
2022-12-23T05:39:34.874Z,812.82
2022-12-23T05:40:34.872Z,812.83
2022-12-23T05:41:34.882Z,812.83
2022-12-23T05:42:34.890Z,812.82
2022-12-23T05:43:34.907Z,812.79
2022-12-23T05:44:34.898Z,812.79
2022-12-23T05:45:34.960Z,812.79
2022-12-23T05:46:35.022Z,812.79
2022-12-23T05:47:34.933Z,812.80
2022-12-23T05:48:34.950Z,812.84
2022-12-23T05:49:34.943Z,812.79
2022-12-23T05:50:34.946Z,812.82
2022-12-23T05:51:34.968Z,812.82
2022-12-23T05:52:34.980Z,812.84
2022-12-23T05:53:34.983Z,812.84
2022-12-23T05:54:34.980Z,812.85
2022-12-23T05:55:34.981Z,812.83
2022-12-23T05:56:34.990Z,812.89
2022-12-23T05:57:34.998Z,812.87
2022-12-23T05:58:35.000Z,812.90
2022-12-23T05:59:35.020Z,812.90
2022-12-23T06:00:35.023Z,812.92
2022-12-23T06:01:35.109Z,812.89
2022-12-23T06:02:35.319Z,812.94
2022-12-23T06:03:35.234Z,812.93
2022-12-23T06:04:35.069Z,812.91
2022-12-23T06:05:35.059Z,812.95
2022-12-23T06:06:35.059Z,812.93
2022-12-23T06:07:35.076Z,812.95
2022-12-23T06:08:35.078Z,812.95
2022-12-23T06:09:35.089Z,812.97
2022-12-23T06:10:35.099Z,813.00
2022-12-23T06:11:35.101Z,813.03
2022-12-23T06:12:35.105Z,813.03
2022-12-23T06:13:35.124Z,813.06
2022-12-23T06:14:35.120Z,813.10
2022-12-23T06:15:35.147Z,813.09
2022-12-23T06:16:35.275Z,813.09
2022-12-23T06:17:35.147Z,813.12
2022-12-23T06:18:35.163Z,813.14
2022-12-23T06:19:35.201Z,813.18
2022-12-23T06:20:35.187Z,813.19
2022-12-23T06:21:35.178Z,813.14
2022-12-23T06:22:35.189Z,813.18
2022-12-23T06:23:35.192Z,813.18
2022-12-23T06:24:35.192Z,813.17
2022-12-23T06:25:35.218Z,813.20
2022-12-23T06:26:35.207Z,813.19
2022-12-23T06:27:35.219Z,813.20
2022-12-23T06:28:35.231Z,813.19
2022-12-23T06:29:35.233Z,813.17
2022-12-23T06:30:35.256Z,813.19
2022-12-23T06:31:35.310Z,813.18
2022-12-23T06:32:38.509Z,813.15
2022-12-23T06:33:35.265Z,813.19
2022-12-23T06:34:35.266Z,813.15
2022-12-23T06:35:35.291Z,813.22
2022-12-23T06:36:35.298Z,813.21
2022-12-23T06:37:35.292Z,813.19
2022-12-23T06:38:35.302Z,813.25
2022-12-23T06:39:35.307Z,813.30
2022-12-23T06:40:35.310Z,813.35
2022-12-23T06:41:35.325Z,813.38
2022-12-23T06:42:35.324Z,813.43
2022-12-23T06:43:35.335Z,813.37
2022-12-23T06:44:35.342Z,813.39
2022-12-23T06:45:35.373Z,813.41
2022-12-23T06:46:35.359Z,813.44
2022-12-23T06:47:35.365Z,813.39
2022-12-23T06:48:35.367Z,813.45
2022-12-23T06:49:35.386Z,813.49
2022-12-23T06:50:35.390Z,813.52
2022-12-23T06:51:35.393Z,813.54
2022-12-23T06:52:35.425Z,813.48
2022-12-23T06:53:35.412Z,813.47
2022-12-23T06:54:35.414Z,813.54
2022-12-23T06:55:35.428Z,813.53
2022-12-23T06:56:35.424Z,813.52
2022-12-23T06:57:35.441Z,813.55
2022-12-23T06:58:35.442Z,813.53
2022-12-23T06:59:35.463Z,813.54
2022-12-23T07:00:35.462Z,813.57
2022-12-23T07:01:35.772Z,813.56
2022-12-23T07:02:35.592Z,813.58
2022-12-23T07:03:35.595Z,813.60
2022-12-23T07:04:35.541Z,813.59
2022-12-23T07:05:37.722Z,813.60
2022-12-23T07:06:35.497Z,813.63
2022-12-23T07:07:35.508Z,813.63
2022-12-23T07:08:35.535Z,813.62
2022-12-23T07:09:35.572Z,813.55
2022-12-23T07:10:35.547Z,813.59
2022-12-23T07:11:35.593Z,813.66
2022-12-23T07:12:35.574Z,813.58
2022-12-23T07:13:35.562Z,813.64
2022-12-23T07:14:35.627Z,813.60
2022-12-23T07:15:35.585Z,813.69
2022-12-23T07:16:35.631Z,813.68
2022-12-23T07:17:35.578Z,813.73
2022-12-23T07:18:35.587Z,813.76
2022-12-23T07:19:35.592Z,813.78
2022-12-23T07:20:35.602Z,813.68
2022-12-23T07:21:35.610Z,813.61
2022-12-23T07:22:35.660Z,813.54
2022-12-23T07:23:35.623Z,813.47
2022-12-23T07:24:35.649Z,813.49
2022-12-23T07:25:35.636Z,813.52
2022-12-23T07:26:35.642Z,813.49
2022-12-23T07:27:35.665Z,813.49
2022-12-23T07:28:35.672Z,813.41
2022-12-23T07:29:35.667Z,813.40
2022-12-23T07:30:35.679Z,813.37
2022-12-23T07:31:39.377Z,813.33
2022-12-23T07:32:35.715Z,813.33
2022-12-23T07:33:35.695Z,813.32
2022-12-23T07:34:35.700Z,813.34
2022-12-23T07:35:35.749Z,813.34
2022-12-23T07:36:35.812Z,813.42
2022-12-23T07:37:35.728Z,813.47
2022-12-23T07:38:35.740Z,813.41
2022-12-23T07:39:35.744Z,813.41
2022-12-23T07:40:35.763Z,813.46
2022-12-23T07:41:35.750Z,813.52
2022-12-23T07:42:45.787Z,813.58
2022-12-23T07:43:35.765Z,813.60
2022-12-23T07:44:35.772Z,813.66
2022-12-23T07:45:35.824Z,813.68
2022-12-23T07:46:35.888Z,813.69
2022-12-23T07:47:35.795Z,813.68
2022-12-23T07:48:35.809Z,813.70
2022-12-23T07:49:35.814Z,813.69
2022-12-23T07:50:35.811Z,813.61
2022-12-23T07:51:35.826Z,813.60
2022-12-23T07:52:35.833Z,813.57
2022-12-23T07:53:35.836Z,813.57
2022-12-23T07:54:35.844Z,813.68
2022-12-23T07:55:35.853Z,813.69
2022-12-23T07:56:35.890Z,813.68
2022-12-23T07:57:35.867Z,813.71
2022-12-23T07:58:35.874Z,813.67
2022-12-23T07:59:35.886Z,813.68
2022-12-23T08:00:35.889Z,813.72
2022-12-23T08:01:36.011Z,813.80
2022-12-23T08:02:36.071Z,813.90
2022-12-23T08:03:35.958Z,813.97
2022-12-23T08:04:38.436Z,814.04
2022-12-23T08:05:35.922Z,813.98
2022-12-23T08:06:35.928Z,813.98
2022-12-23T08:07:35.942Z,813.94
2022-12-23T08:08:35.940Z,813.90
2022-12-23T08:09:35.963Z,813.89
2022-12-23T08:10:35.960Z,813.82
2022-12-23T08:11:35.967Z,813.85
2022-12-23T08:12:36.016Z,813.81
2022-12-23T08:13:35.984Z,813.73
2022-12-23T08:14:35.984Z,813.70
2022-12-23T08:15:36.001Z,813.68
2022-12-23T08:16:43.013Z,813.65
2022-12-23T08:17:36.008Z,813.63
2022-12-23T08:18:36.035Z,813.54
2022-12-23T08:19:36.031Z,813.49
2022-12-23T08:20:36.041Z,813.44
2022-12-23T08:21:36.039Z,813.37
2022-12-23T08:22:36.043Z,813.33
2022-12-23T08:23:36.058Z,813.41
2022-12-23T08:24:36.059Z,813.44
2022-12-23T08:25:36.069Z,813.50
2022-12-23T08:26:36.073Z,813.59
2022-12-23T08:27:36.083Z,813.59
2022-12-23T08:28:36.111Z,813.59
2022-12-23T08:29:36.713Z,813.52
2022-12-23T08:30:36.130Z,813.54
2022-12-23T08:31:36.112Z,813.62
2022-12-23T08:32:36.124Z,813.63
2022-12-23T08:33:36.129Z,813.69
2022-12-23T08:34:36.133Z,813.79
2022-12-23T08:35:36.141Z,813.92
2022-12-23T08:36:36.202Z,814.01
2022-12-23T08:37:36.157Z,814.10
2022-12-23T08:38:36.161Z,814.16
2022-12-23T08:39:36.173Z,814.14
2022-12-23T08:40:36.175Z,814.13
2022-12-23T08:41:36.197Z,814.09
2022-12-23T08:42:36.188Z,814.06
2022-12-23T08:43:36.445Z,813.98
2022-12-23T08:44:36.228Z,813.99
2022-12-23T08:45:36.244Z,813.88
2022-12-23T08:46:36.343Z,813.98
2022-12-23T08:47:36.232Z,813.90
2022-12-23T08:48:36.266Z,813.91
2022-12-23T08:49:36.255Z,813.93
2022-12-23T08:50:36.269Z,813.91
2022-12-23T08:51:36.297Z,813.92
2022-12-23T08:52:36.266Z,813.92
2022-12-23T08:53:36.295Z,813.92
2022-12-23T08:54:36.280Z,813.93
2022-12-23T08:55:36.293Z,813.92
2022-12-23T08:56:36.310Z,813.97
2022-12-23T08:57:36.308Z,813.97
2022-12-23T08:58:36.323Z,814.05
2022-12-23T08:59:36.329Z,814.08
2022-12-23T09:00:36.400Z,814.04
2022-12-23T09:01:36.539Z,814.00
2022-12-23T09:02:36.536Z,814.02
2022-12-23T09:03:36.490Z,814.04
2022-12-23T09:04:36.369Z,814.06
2022-12-23T09:05:36.369Z,814.13
2022-12-23T09:06:36.371Z,814.19
2022-12-23T09:07:36.380Z,814.17
2022-12-23T09:08:36.393Z,814.10
2022-12-23T09:09:36.408Z,814.10
2022-12-23T09:10:36.398Z,814.19
2022-12-23T09:11:36.407Z,814.16
2022-12-23T09:12:36.413Z,814.12
2022-12-23T09:13:36.434Z,814.14
2022-12-23T09:14:36.428Z,814.09
2022-12-23T09:15:36.533Z,814.15
2022-12-23T09:16:36.597Z,814.17
2022-12-23T09:17:36.453Z,814.19
2022-12-23T09:18:36.461Z,814.18
2022-12-23T09:19:36.478Z,814.20
2022-12-23T09:20:36.487Z,814.16
2022-12-23T09:21:36.491Z,814.18
2022-12-23T09:22:36.487Z,814.10
2022-12-23T09:23:36.501Z,814.08
2022-12-23T09:24:36.502Z,814.10
2022-12-23T09:25:36.513Z,814.11
2022-12-23T09:26:36.526Z,814.20
2022-12-23T09:27:36.528Z,814.20
2022-12-23T09:28:36.539Z,814.26
2022-12-23T09:29:36.558Z,814.25
2022-12-23T09:30:36.551Z,814.27
2022-12-23T09:31:38.030Z,814.22
2022-12-23T09:32:36.589Z,814.22
2022-12-23T09:33:36.592Z,814.25
2022-12-23T09:34:36.574Z,814.25
2022-12-23T09:35:36.591Z,814.30
2022-12-23T09:36:36.642Z,814.32
2022-12-23T09:37:36.622Z,814.34
2022-12-23T09:38:36.607Z,814.38
2022-12-23T09:39:36.624Z,814.41
2022-12-23T09:40:36.643Z,814.41
2022-12-23T09:41:36.651Z,814.42
2022-12-23T09:42:36.639Z,814.46
2022-12-23T09:43:36.648Z,814.49
2022-12-23T09:44:36.667Z,814.53
2022-12-23T09:45:40.459Z,814.51
2022-12-23T09:46:36.697Z,814.49
2022-12-23T09:47:36.675Z,814.52
2022-12-23T09:48:36.708Z,814.52
2022-12-23T09:49:36.691Z,814.48
2022-12-23T09:50:36.699Z,814.50
2022-12-23T09:51:36.710Z,814.49
2022-12-23T09:52:36.714Z,814.54
2022-12-23T09:53:36.749Z,814.49
2022-12-23T09:54:36.731Z,814.46
2022-12-23T09:55:36.764Z,814.44
2022-12-23T09:56:36.851Z,814.43
2022-12-23T09:57:36.755Z,814.47
2022-12-23T09:58:36.766Z,814.48
2022-12-23T09:59:36.780Z,814.46
2022-12-23T10:00:36.784Z,814.49
2022-12-23T10:01:40.215Z,814.47
2022-12-23T10:02:37.006Z,814.52
2022-12-23T10:03:37.216Z,814.54
2022-12-23T10:04:36.970Z,814.51
2022-12-23T10:05:36.816Z,814.52
2022-12-23T10:06:36.834Z,814.52
2022-12-23T10:07:36.841Z,814.53
2022-12-23T10:08:36.836Z,814.52
2022-12-23T10:09:36.841Z,814.56
2022-12-23T10:10:36.878Z,814.56
2022-12-23T10:11:36.852Z,814.53
2022-12-23T10:12:40.048Z,814.55
2022-12-23T10:13:36.870Z,814.57
2022-12-23T10:14:36.881Z,814.56
2022-12-23T10:15:36.894Z,814.60
2022-12-23T10:16:36.967Z,814.61
2022-12-23T10:17:36.898Z,814.65
2022-12-23T10:18:36.912Z,814.64
2022-12-23T10:19:36.915Z,814.61
2022-12-23T10:20:36.946Z,814.65
2022-12-23T10:21:39.185Z,814.66
2022-12-23T10:22:36.951Z,814.65
2022-12-23T10:23:36.946Z,814.66
2022-12-23T10:24:36.961Z,814.66
2022-12-23T10:25:36.965Z,814.67
2022-12-23T10:26:36.968Z,814.70
2022-12-23T10:27:36.976Z,814.69
2022-12-23T10:28:36.987Z,814.70
2022-12-23T10:29:36.991Z,814.75
2022-12-23T10:31:17.163Z,814.81
2022-12-23T10:31:41.189Z,814.78
2022-12-23T10:32:37.146Z,814.78
2022-12-23T10:33:37.046Z,814.78
2022-12-23T10:35:37.035Z,814.74
2022-12-23T10:36:37.168Z,814.77
2022-12-23T10:37:37.062Z,814.73
2022-12-23T10:38:37.063Z,814.73
2022-12-23T10:39:37.067Z,814.75
2022-12-23T10:40:37.076Z,814.71
2022-12-23T10:41:37.085Z,814.76
2022-12-23T10:42:37.091Z,814.67
2022-12-23T10:43:37.097Z,814.65
2022-12-23T10:44:37.106Z,814.62
2022-12-23T10:45:37.165Z,814.53
2022-12-23T10:46:37.180Z,814.52
2022-12-23T10:47:37.124Z,814.54
2022-12-23T10:48:37.134Z,814.51
2022-12-23T10:49:37.140Z,814.44
2022-12-23T10:50:37.159Z,814.40
2022-12-23T10:51:37.156Z,814.32
2022-12-23T10:52:37.250Z,814.35
2022-12-23T10:53:37.188Z,814.30
2022-12-23T10:54:37.180Z,814.27
2022-12-23T10:55:37.192Z,814.19
2022-12-23T10:56:37.215Z,814.14
2022-12-23T10:57:37.218Z,814.15
2022-12-23T10:58:37.218Z,814.07
2022-12-23T10:59:37.214Z,814.08
2022-12-23T11:00:37.250Z,814.11
2022-12-23T11:01:37.439Z,814.12
2022-12-23T11:02:37.482Z,814.16
2022-12-23T11:03:37.440Z,814.17
2022-12-23T11:04:37.263Z,814.17
2022-12-23T11:05:37.269Z,814.16
2022-12-23T11:06:37.943Z,814.16
2022-12-23T11:07:46.006Z,814.17
2022-12-23T11:08:37.339Z,814.21
2022-12-23T11:09:37.290Z,814.25
2022-12-23T11:10:37.302Z,814.29
2022-12-23T11:11:37.304Z,814.25
2022-12-23T11:12:42.028Z,814.27
2022-12-23T11:13:37.318Z,814.22
2022-12-23T11:14:37.337Z,814.11
2022-12-23T11:15:37.337Z,814.07
2022-12-23T11:16:37.435Z,813.90
2022-12-23T11:17:37.349Z,813.91
2022-12-23T11:18:41.854Z,813.89
2022-12-23T11:19:37.369Z,813.90
2022-12-23T11:20:37.391Z,813.90
2022-12-23T11:21:37.377Z,813.90
2022-12-23T11:22:37.386Z,813.87
2022-12-23T11:23:37.401Z,813.87
2022-12-23T11:24:43.001Z,813.82
2022-12-23T11:25:37.411Z,813.74
2022-12-23T11:26:37.436Z,813.69
2022-12-23T11:27:37.419Z,813.70
2022-12-23T11:28:37.431Z,813.74
2022-12-23T11:29:37.442Z,813.75
2022-12-23T11:30:37.460Z,813.81
2022-12-23T11:31:37.509Z,813.89
2022-12-23T11:32:37.459Z,813.93
2022-12-23T11:33:37.479Z,813.95
2022-12-23T11:34:37.473Z,813.98
2022-12-23T11:35:37.585Z,814.01
2022-12-23T11:36:37.492Z,814.02
2022-12-23T11:37:37.495Z,814.04
2022-12-23T11:38:37.505Z,814.00
2022-12-23T11:39:37.524Z,813.98
2022-12-23T11:40:37.550Z,814.02
2022-12-23T11:41:37.522Z,814.01
2022-12-23T11:42:37.541Z,813.96
2022-12-23T11:43:37.554Z,813.95
2022-12-23T11:44:37.553Z,813.94
2022-12-23T11:45:37.606Z,813.93
2022-12-23T11:46:37.578Z,813.93
2022-12-23T11:47:37.567Z,813.97
2022-12-23T11:48:37.589Z,813.94
2022-12-23T11:49:37.585Z,813.92
2022-12-23T11:50:37.627Z,813.94
2022-12-23T11:51:37.609Z,813.95
2022-12-23T11:52:37.610Z,813.97
2022-12-23T11:53:37.613Z,813.99
2022-12-23T11:54:37.640Z,813.98
2022-12-23T11:55:37.639Z,813.98
2022-12-23T11:56:37.773Z,814.00
2022-12-23T11:57:37.647Z,814.00
2022-12-23T11:58:37.659Z,814.01
2022-12-23T11:59:37.658Z,814.02
2022-12-23T12:00:37.677Z,813.98
2022-12-23T12:01:37.677Z,814.01
2022-12-23T12:02:37.757Z,814.02
2022-12-23T12:03:37.789Z,814.07
2022-12-23T12:04:37.717Z,814.06
2022-12-23T12:05:37.719Z,814.01
2022-12-23T12:06:37.724Z,814.03
2022-12-23T12:07:37.723Z,814.01
2022-12-23T12:08:37.730Z,814.03
2022-12-23T12:09:37.751Z,814.04
2022-12-23T12:10:37.765Z,814.01
2022-12-23T12:11:37.755Z,814.00
2022-12-23T12:12:37.800Z,814.02
2022-12-23T12:13:37.793Z,813.97
2022-12-23T12:14:37.782Z,814.00
2022-12-23T12:15:37.798Z,813.99
2022-12-23T12:16:37.831Z,813.97
2022-12-23T12:17:37.798Z,814.02
2022-12-23T12:18:37.813Z,813.98
2022-12-23T12:19:37.816Z,813.97
2022-12-23T12:20:37.824Z,813.97
2022-12-23T12:21:37.831Z,814.02
2022-12-23T12:22:37.843Z,814.04
2022-12-23T12:23:37.843Z,814.03
2022-12-23T12:24:37.859Z,814.03
2022-12-23T12:25:39.675Z,814.01
2022-12-23T12:26:37.879Z,814.04
2022-12-23T12:27:37.879Z,814.04
2022-12-23T12:28:37.915Z,814.02
2022-12-23T12:29:37.901Z,814.02